sensor_id;sensor_type;location;lat;lon;timestamp;P1;durP1;ratioP1;P2;durP2;ratioP2
68379;SDS011;57711;53.196;19.638;2023-06-14T00:00:32;152.00;;;31.00;;
68379;SDS011;57711;53.196;19.638;2023-06-14T00:03:20;104.00;;;25.20;;
68379;SDS011;57711;53.196;19.638;2023-06-14T00:05:48;277.50;;;54.60;;
68379;SDS011;57711;53.196;19.638;2023-06-14T00:08:15;155.40;;;33.40;;
68379;SDS011;57711;53.196;19.638;2023-06-14T00:10:41;47.90;;;14.30;;
68379;SDS011;57711;53.196;19.638;2023-06-14T00:13:08;29.00;;;8.40;;
68379;SDS011;57711;53.196;19.638;2023-06-14T00:15:35;14.60;;;5.30;;
68379;SDS011;57711;53.196;19.638;2023-06-14T00:18:02;9.10;;;4.50;;
68379;SDS011;57711;53.196;19.638;2023-06-14T00:20:30;15.10;;;5.40;;
68379;SDS011;57711;53.196;19.638;2023-06-14T00:22:59;54.00;;;12.00;;
68379;SDS011;57711;53.196;19.638;2023-06-14T00:25:26;118.30;;;22.00;;
68379;SDS011;57711;53.196;19.638;2023-06-14T00:27:56;41.00;;;9.10;;
68379;SDS011;57711;53.196;19.638;2023-06-14T00:30:24;21.20;;;6.40;;
68379;SDS011;57711;53.196;19.638;2023-06-14T00:32:51;11.20;;;4.20;;
68379;SDS011;57711;53.196;19.638;2023-06-14T00:35:17;9.50;;;4.70;;
68379;SDS011;57711;53.196;19.638;2023-06-14T00:37:44;5.40;;;3.80;;
68379;SDS011;57711;53.196;19.638;2023-06-14T00:40:11;11.10;;;4.70;;
68379;SDS011;57711;53.196;19.638;2023-06-14T00:42:37;18.10;;;5.70;;
68379;SDS011;57711;53.196;19.638;2023-06-14T00:45:04;11.40;;;4.20;;
68379;SDS011;57711;53.196;19.638;2023-06-14T00:47:31;9.40;;;4.40;;
68379;SDS011;57711;53.196;19.638;2023-06-14T00:49:58;8.90;;;3.90;;
68379;SDS011;57711;53.196;19.638;2023-06-14T00:52:26;29.60;;;6.90;;
68379;SDS011;57711;53.196;19.638;2023-06-14T00:54:53;11.10;;;5.20;;
68379;SDS011;57711;53.196;19.638;2023-06-14T00:57:20;9.10;;;4.40;;
68379;SDS011;57711;53.196;19.638;2023-06-14T00:59:47;7.20;;;4.70;;
68379;SDS011;57711;53.196;19.638;2023-06-14T01:02:15;10.40;;;4.10;;
68379;SDS011;57711;53.196;19.638;2023-06-14T01:04:43;11.70;;;5.50;;
68379;SDS011;57711;53.196;19.638;2023-06-14T01:07:12;7.20;;;4.60;;
68379;SDS011;57711;53.196;19.638;2023-06-14T01:12:35;6.40;;;4.30;;
68379;SDS011;57711;53.196;19.638;2023-06-14T01:15:07;9.80;;;4.80;;
68379;SDS011;57711;53.196;19.638;2023-06-14T01:17:35;14.60;;;4.20;;
68379;SDS011;57711;53.196;19.638;2023-06-14T01:20:12;6.40;;;4.70;;
68379;SDS011;57711;53.196;19.638;2023-06-14T01:22:55;8.50;;;4.40;;
68379;SDS011;57711;53.196;19.638;2023-06-14T01:25:23;7.50;;;4.70;;
68379;SDS011;57711;53.196;19.638;2023-06-14T01:27:50;16.90;;;5.10;;
68379;SDS011;57711;53.196;19.638;2023-06-14T01:30:18;8.70;;;4.40;;
68379;SDS011;57711;53.196;19.638;2023-06-14T01:32:47;6.00;;;4.20;;
68379;SDS011;57711;53.196;19.638;2023-06-14T01:35:16;6.00;;;3.70;;
68379;SDS011;57711;53.196;19.638;2023-06-14T01:37:43;12.90;;;4.90;;
68379;SDS011;57711;53.196;19.638;2023-06-14T01:40:13;11.70;;;5.60;;
68379;SDS011;57711;53.196;19.638;2023-06-14T01:42:42;11.20;;;5.50;;
68379;SDS011;57711;53.196;19.638;2023-06-14T01:45:10;8.20;;;4.70;;
68379;SDS011;57711;53.196;19.638;2023-06-14T01:47:37;6.00;;;4.60;;
68379;SDS011;57711;53.196;19.638;2023-06-14T01:50:06;9.00;;;4.80;;
68379;SDS011;57711;53.196;19.638;2023-06-14T01:52:33;7.10;;;3.70;;
68379;SDS011;57711;53.196;19.638;2023-06-14T01:54:59;8.90;;;5.20;;
68379;SDS011;57711;53.196;19.638;2023-06-14T01:57:29;9.40;;;4.60;;
68379;SDS011;57711;53.196;19.638;2023-06-14T01:59:55;11.90;;;6.90;;
68379;SDS011;57711;53.196;19.638;2023-06-14T02:02:22;12.60;;;6.20;;
68379;SDS011;57711;53.196;19.638;2023-06-14T02:04:48;7.30;;;5.50;;
68379;SDS011;57711;53.196;19.638;2023-06-14T02:07:15;6.30;;;4.30;;
68379;SDS011;57711;53.196;19.638;2023-06-14T02:09:42;8.30;;;4.10;;
68379;SDS011;57711;53.196;19.638;2023-06-14T02:12:08;7.30;;;4.40;;
68379;SDS011;57711;53.196;19.638;2023-06-14T02:14:37;7.90;;;4.70;;
68379;SDS011;57711;53.196;19.638;2023-06-14T02:17:05;8.90;;;4.40;;
68379;SDS011;57711;53.196;19.638;2023-06-14T02:19:34;10.60;;;4.70;;
68379;SDS011;57711;53.196;19.638;2023-06-14T02:22:02;8.40;;;4.90;;
68379;SDS011;57711;53.196;19.638;2023-06-14T02:24:29;8.10;;;4.60;;
68379;SDS011;57711;53.196;19.638;2023-06-14T02:26:56;6.30;;;4.10;;
68379;SDS011;57711;53.196;19.638;2023-06-14T02:29:22;6.90;;;4.30;;
68379;SDS011;57711;53.196;19.638;2023-06-14T02:31:48;6.90;;;3.90;;
68379;SDS011;57711;53.196;19.638;2023-06-14T02:34:15;9.90;;;4.40;;
68379;SDS011;57711;53.196;19.638;2023-06-14T02:36:46;9.90;;;5.00;;
68379;SDS011;57711;53.196;19.638;2023-06-14T02:39:14;12.50;;;5.30;;
68379;SDS011;57711;53.196;19.638;2023-06-14T02:41:42;8.30;;;4.90;;
68379;SDS011;57711;53.196;19.638;2023-06-14T02:44:09;10.10;;;4.50;;
68379;SDS011;57711;53.196;19.638;2023-06-14T02:46:37;8.00;;;4.50;;
68379;SDS011;57711;53.196;19.638;2023-06-14T02:49:04;10.90;;;4.40;;
68379;SDS011;57711;53.196;19.638;2023-06-14T02:51:31;10.80;;;5.10;;
68379;SDS011;57711;53.196;19.638;2023-06-14T02:53:58;13.60;;;5.80;;
68379;SDS011;57711;53.196;19.638;2023-06-14T02:56:24;7.90;;;5.60;;
68379;SDS011;57711;53.196;19.638;2023-06-14T02:58:52;11.90;;;4.90;;
68379;SDS011;57711;53.196;19.638;2023-06-14T03:01:19;9.80;;;4.70;;
68379;SDS011;57711;53.196;19.638;2023-06-14T03:03:46;12.50;;;4.80;;
68379;SDS011;57711;53.196;19.638;2023-06-14T03:06:13;9.00;;;4.70;;
68379;SDS011;57711;53.196;19.638;2023-06-14T03:08:44;7.00;;;4.60;;
68379;SDS011;57711;53.196;19.638;2023-06-14T03:11:14;10.10;;;4.80;;
68379;SDS011;57711;53.196;19.638;2023-06-14T03:13:41;12.50;;;5.10;;
68379;SDS011;57711;53.196;19.638;2023-06-14T03:16:08;7.50;;;4.20;;
68379;SDS011;57711;53.196;19.638;2023-06-14T03:18:36;9.70;;;4.70;;
68379;SDS011;57711;53.196;19.638;2023-06-14T03:21:04;10.40;;;5.00;;
68379;SDS011;57711;53.196;19.638;2023-06-14T03:23:31;13.30;;;6.40;;
68379;SDS011;57711;53.196;19.638;2023-06-14T03:25:57;8.00;;;4.80;;
68379;SDS011;57711;53.196;19.638;2023-06-14T03:28:24;7.00;;;4.50;;
68379;SDS011;57711;53.196;19.638;2023-06-14T03:30:52;6.40;;;4.50;;
68379;SDS011;57711;53.196;19.638;2023-06-14T03:33:19;9.00;;;4.50;;
68379;SDS011;57711;53.196;19.638;2023-06-14T03:35:47;13.50;;;4.50;;
68379;SDS011;57711;53.196;19.638;2023-06-14T03:38:14;8.00;;;5.10;;
68379;SDS011;57711;53.196;19.638;2023-06-14T03:40:41;7.10;;;4.50;;
68379;SDS011;57711;53.196;19.638;2023-06-14T03:43:22;14.50;;;5.10;;
68379;SDS011;57711;53.196;19.638;2023-06-14T03:45:48;7.70;;;5.30;;
68379;SDS011;57711;53.196;19.638;2023-06-14T03:48:15;12.30;;;5.00;;
68379;SDS011;57711;53.196;19.638;2023-06-14T03:50:42;13.20;;;5.90;;
68379;SDS011;57711;53.196;19.638;2023-06-14T03:53:10;9.30;;;5.30;;
68379;SDS011;57711;53.196;19.638;2023-06-14T03:55:39;8.60;;;5.20;;
68379;SDS011;57711;53.196;19.638;2023-06-14T03:58:34;11.10;;;5.30;;
68379;SDS011;57711;53.196;19.638;2023-06-14T04:01:01;9.80;;;5.90;;
68379;SDS011;57711;53.196;19.638;2023-06-14T04:03:30;8.20;;;5.80;;
68379;SDS011;57711;53.196;19.638;2023-06-14T04:06:00;13.80;;;4.80;;
68379;SDS011;57711;53.196;19.638;2023-06-14T04:08:27;9.70;;;5.30;;
68379;SDS011;57711;53.196;19.638;2023-06-14T04:10:54;12.80;;;4.80;;
68379;SDS011;57711;53.196;19.638;2023-06-14T04:13:20;7.40;;;4.30;;
68379;SDS011;57711;53.196;19.638;2023-06-14T04:15:47;8.00;;;5.40;;
68379;SDS011;57711;53.196;19.638;2023-06-14T04:18:19;13.60;;;5.50;;
68379;SDS011;57711;53.196;19.638;2023-06-14T04:20:50;9.30;;;5.60;;
68379;SDS011;57711;53.196;19.638;2023-06-14T04:23:17;9.30;;;6.10;;
68379;SDS011;57711;53.196;19.638;2023-06-14T04:25:44;20.40;;;14.20;;
68379;SDS011;57711;53.196;19.638;2023-06-14T04:28:11;16.00;;;8.40;;
68379;SDS011;57711;53.196;19.638;2023-06-14T04:30:42;10.40;;;7.40;;
68379;SDS011;57711;53.196;19.638;2023-06-14T04:33:09;10.70;;;6.60;;
68379;SDS011;57711;53.196;19.638;2023-06-14T04:35:36;12.20;;;6.30;;
68379;SDS011;57711;53.196;19.638;2023-06-14T04:38:03;15.70;;;6.20;;
68379;SDS011;57711;53.196;19.638;2023-06-14T04:40:31;15.20;;;6.70;;
68379;SDS011;57711;53.196;19.638;2023-06-14T04:43:00;17.80;;;6.40;;
68379;SDS011;57711;53.196;19.638;2023-06-14T04:45:27;14.20;;;6.40;;
68379;SDS011;57711;53.196;19.638;2023-06-14T04:47:59;10.80;;;5.60;;
68379;SDS011;57711;53.196;19.638;2023-06-14T04:50:27;8.60;;;5.90;;
68379;SDS011;57711;53.196;19.638;2023-06-14T04:52:55;12.40;;;5.60;;
68379;SDS011;57711;53.196;19.638;2023-06-14T04:55:22;13.50;;;6.30;;
68379;SDS011;57711;53.196;19.638;2023-06-14T04:57:51;9.80;;;5.80;;
68379;SDS011;57711;53.196;19.638;2023-06-14T05:00:19;10.60;;;5.90;;
68379;SDS011;57711;53.196;19.638;2023-06-14T05:02:47;11.20;;;6.20;;
68379;SDS011;57711;53.196;19.638;2023-06-14T05:05:15;9.60;;;6.10;;
68379;SDS011;57711;53.196;19.638;2023-06-14T05:07:43;8.90;;;5.90;;
68379;SDS011;57711;53.196;19.638;2023-06-14T05:10:11;10.10;;;6.80;;
68379;SDS011;57711;53.196;19.638;2023-06-14T05:12:38;8.70;;;5.70;;
68379;SDS011;57711;53.196;19.638;2023-06-14T05:15:06;13.60;;;6.30;;
68379;SDS011;57711;53.196;19.638;2023-06-14T05:17:35;12.40;;;7.70;;
68379;SDS011;57711;53.196;19.638;2023-06-14T05:20:07;10.50;;;5.50;;
68379;SDS011;57711;53.196;19.638;2023-06-14T05:22:43;19.00;;;6.40;;
68379;SDS011;57711;53.196;19.638;2023-06-14T05:25:20;12.90;;;5.80;;
68379;SDS011;57711;53.196;19.638;2023-06-14T05:28:09;12.30;;;5.50;;
68379;SDS011;57711;53.196;19.638;2023-06-14T05:30:57;15.20;;;6.00;;
68379;SDS011;57711;53.196;19.638;2023-06-14T05:33:29;12.00;;;5.80;;
68379;SDS011;57711;53.196;19.638;2023-06-14T05:35:56;10.40;;;6.10;;
68379;SDS011;57711;53.196;19.638;2023-06-14T05:38:22;18.90;;;7.60;;
68379;SDS011;57711;53.196;19.638;2023-06-14T05:40:49;15.10;;;8.80;;
68379;SDS011;57711;53.196;19.638;2023-06-14T05:43:15;13.00;;;5.60;;
68379;SDS011;57711;53.196;19.638;2023-06-14T05:45:42;19.00;;;5.40;;
68379;SDS011;57711;53.196;19.638;2023-06-14T05:48:08;12.80;;;5.10;;
68379;SDS011;57711;53.196;19.638;2023-06-14T05:50:35;10.10;;;5.30;;
68379;SDS011;57711;53.196;19.638;2023-06-14T05:53:01;10.10;;;4.60;;
68379;SDS011;57711;53.196;19.638;2023-06-14T05:55:28;13.60;;;5.90;;
68379;SDS011;57711;53.196;19.638;2023-06-14T05:57:54;12.00;;;7.20;;
68379;SDS011;57711;53.196;19.638;2023-06-14T06:00:21;12.20;;;6.70;;
68379;SDS011;57711;53.196;19.638;2023-06-14T06:02:47;11.50;;;5.20;;
68379;SDS011;57711;53.196;19.638;2023-06-14T06:05:15;9.60;;;4.90;;
68379;SDS011;57711;53.196;19.638;2023-06-14T06:07:42;13.70;;;4.60;;
68379;SDS011;57711;53.196;19.638;2023-06-14T06:10:11;10.30;;;5.40;;
68379;SDS011;57711;53.196;19.638;2023-06-14T06:12:37;10.50;;;5.20;;
68379;SDS011;57711;53.196;19.638;2023-06-14T06:15:04;11.60;;;6.50;;
68379;SDS011;57711;53.196;19.638;2023-06-14T06:17:32;13.30;;;5.70;;
68379;SDS011;57711;53.196;19.638;2023-06-14T06:20:18;11.70;;;5.40;;
68379;SDS011;57711;53.196;19.638;2023-06-14T06:22:45;18.20;;;7.10;;
68379;SDS011;57711;53.196;19.638;2023-06-14T06:25:11;13.00;;;6.70;;
68379;SDS011;57711;53.196;19.638;2023-06-14T06:27:37;14.10;;;6.40;;
68379;SDS011;57711;53.196;19.638;2023-06-14T06:30:06;12.00;;;5.90;;
68379;SDS011;57711;53.196;19.638;2023-06-14T06:32:33;12.40;;;6.70;;
68379;SDS011;57711;53.196;19.638;2023-06-14T06:35:00;10.80;;;6.20;;
68379;SDS011;57711;53.196;19.638;2023-06-14T06:37:27;17.60;;;6.70;;
68379;SDS011;57711;53.196;19.638;2023-06-14T06:39:53;11.20;;;7.70;;
68379;SDS011;57711;53.196;19.638;2023-06-14T06:42:20;12.10;;;6.30;;
68379;SDS011;57711;53.196;19.638;2023-06-14T06:44:49;15.00;;;6.60;;
68379;SDS011;57711;53.196;19.638;2023-06-14T06:47:15;10.10;;;6.20;;
68379;SDS011;57711;53.196;19.638;2023-06-14T06:49:42;11.90;;;6.60;;
68379;SDS011;57711;53.196;19.638;2023-06-14T06:52:08;14.40;;;6.10;;
68379;SDS011;57711;53.196;19.638;2023-06-14T06:54:35;19.90;;;5.70;;
68379;SDS011;57711;53.196;19.638;2023-06-14T06:57:01;12.60;;;5.80;;
68379;SDS011;57711;53.196;19.638;2023-06-14T06:59:28;10.50;;;5.80;;
68379;SDS011;57711;53.196;19.638;2023-06-14T07:01:55;10.60;;;5.90;;
68379;SDS011;57711;53.196;19.638;2023-06-14T07:04:22;9.60;;;5.70;;
68379;SDS011;57711;53.196;19.638;2023-06-14T07:06:49;9.90;;;6.00;;
68379;SDS011;57711;53.196;19.638;2023-06-14T07:09:15;11.50;;;6.20;;
68379;SDS011;57711;53.196;19.638;2023-06-14T07:11:43;11.90;;;6.40;;
68379;SDS011;57711;53.196;19.638;2023-06-14T07:14:10;9.90;;;6.30;;
68379;SDS011;57711;53.196;19.638;2023-06-14T07:16:37;17.40;;;8.20;;
68379;SDS011;57711;53.196;19.638;2023-06-14T07:19:04;19.30;;;6.40;;
68379;SDS011;57711;53.196;19.638;2023-06-14T07:21:31;14.60;;;5.90;;
68379;SDS011;57711;53.196;19.638;2023-06-14T07:23:57;12.10;;;6.30;;
68379;SDS011;57711;53.196;19.638;2023-06-14T07:26:24;8.60;;;5.60;;
68379;SDS011;57711;53.196;19.638;2023-06-14T07:28:51;10.10;;;5.20;;
68379;SDS011;57711;53.196;19.638;2023-06-14T07:31:18;18.80;;;5.80;;
68379;SDS011;57711;53.196;19.638;2023-06-14T07:33:45;15.30;;;6.30;;
68379;SDS011;57711;53.196;19.638;2023-06-14T07:36:12;12.50;;;5.70;;
68379;SDS011;57711;53.196;19.638;2023-06-14T07:38:38;18.10;;;6.10;;
68379;SDS011;57711;53.196;19.638;2023-06-14T07:41:06;15.40;;;5.80;;
68379;SDS011;57711;53.196;19.638;2023-06-14T07:43:33;11.60;;;5.80;;
68379;SDS011;57711;53.196;19.638;2023-06-14T07:46:00;18.10;;;6.80;;
68379;SDS011;57711;53.196;19.638;2023-06-14T07:48:33;11.90;;;6.00;;
68379;SDS011;57711;53.196;19.638;2023-06-14T07:51:01;17.40;;;6.50;;
68379;SDS011;57711;53.196;19.638;2023-06-14T07:53:28;18.40;;;5.90;;
68379;SDS011;57711;53.196;19.638;2023-06-14T07:55:54;13.00;;;6.60;;
68379;SDS011;57711;53.196;19.638;2023-06-14T07:58:21;18.30;;;5.50;;
68379;SDS011;57711;53.196;19.638;2023-06-14T08:00:48;9.80;;;5.00;;
68379;SDS011;57711;53.196;19.638;2023-06-14T08:03:15;11.20;;;5.20;;
68379;SDS011;57711;53.196;19.638;2023-06-14T08:05:42;8.70;;;5.50;;
68379;SDS011;57711;53.196;19.638;2023-06-14T08:08:08;12.80;;;4.90;;
68379;SDS011;57711;53.196;19.638;2023-06-14T08:10:34;14.20;;;5.70;;
68379;SDS011;57711;53.196;19.638;2023-06-14T08:13:01;14.80;;;6.10;;
68379;SDS011;57711;53.196;19.638;2023-06-14T08:15:28;13.40;;;5.40;;
68379;SDS011;57711;53.196;19.638;2023-06-14T08:17:54;17.40;;;6.60;;
68379;SDS011;57711;53.196;19.638;2023-06-14T08:20:21;14.40;;;5.10;;
68379;SDS011;57711;53.196;19.638;2023-06-14T08:22:48;9.80;;;4.90;;
68379;SDS011;57711;53.196;19.638;2023-06-14T08:25:14;12.30;;;5.30;;
68379;SDS011;57711;53.196;19.638;2023-06-14T08:27:42;14.60;;;5.00;;
68379;SDS011;57711;53.196;19.638;2023-06-14T08:30:08;12.80;;;5.50;;
68379;SDS011;57711;53.196;19.638;2023-06-14T08:32:36;19.00;;;5.90;;
68379;SDS011;57711;53.196;19.638;2023-06-14T08:35:03;12.30;;;5.20;;
68379;SDS011;57711;53.196;19.638;2023-06-14T08:37:32;9.90;;;4.70;;
68379;SDS011;57711;53.196;19.638;2023-06-14T08:39:59;11.60;;;4.60;;
68379;SDS011;57711;53.196;19.638;2023-06-14T08:42:26;7.30;;;4.70;;
68379;SDS011;57711;53.196;19.638;2023-06-14T08:45:07;11.80;;;4.10;;
68379;SDS011;57711;53.196;19.638;2023-06-14T08:47:34;15.20;;;5.10;;
68379;SDS011;57711;53.196;19.638;2023-06-14T08:50:07;18.60;;;4.80;;
68379;SDS011;57711;53.196;19.638;2023-06-14T08:52:51;8.80;;;4.30;;
68379;SDS011;57711;53.196;19.638;2023-06-14T08:55:23;12.60;;;5.80;;
68379;SDS011;57711;53.196;19.638;2023-06-14T08:58:00;41.30;;;25.80;;
68379;SDS011;57711;53.196;19.638;2023-06-14T09:00:29;21.10;;;13.40;;
68379;SDS011;57711;53.196;19.638;2023-06-14T09:02:56;16.30;;;8.00;;
68379;SDS011;57711;53.196;19.638;2023-06-14T09:05:26;16.00;;;6.00;;
68379;SDS011;57711;53.196;19.638;2023-06-14T09:07:54;13.30;;;5.20;;
68379;SDS011;57711;53.196;19.638;2023-06-14T09:10:22;13.20;;;5.10;;
68379;SDS011;57711;53.196;19.638;2023-06-14T09:12:50;14.30;;;5.10;;
68379;SDS011;57711;53.196;19.638;2023-06-14T09:15:17;16.20;;;4.80;;
68379;SDS011;57711;53.196;19.638;2023-06-14T09:17:44;10.90;;;4.80;;
68379;SDS011;57711;53.196;19.638;2023-06-14T09:20:12;9.90;;;4.30;;
68379;SDS011;57711;53.196;19.638;2023-06-14T09:22:44;14.30;;;3.40;;
68379;SDS011;57711;53.196;19.638;2023-06-14T09:25:10;8.40;;;3.20;;
68379;SDS011;57711;53.196;19.638;2023-06-14T09:27:59;8.40;;;3.70;;
68379;SDS011;57711;53.196;19.638;2023-06-14T09:30:26;12.10;;;4.10;;
68379;SDS011;57711;53.196;19.638;2023-06-14T09:32:52;11.10;;;4.10;;
68379;SDS011;57711;53.196;19.638;2023-06-14T09:35:20;10.30;;;4.70;;
68379;SDS011;57711;53.196;19.638;2023-06-14T09:37:46;10.50;;;4.30;;
68379;SDS011;57711;53.196;19.638;2023-06-14T09:40:13;13.80;;;4.00;;
68379;SDS011;57711;53.196;19.638;2023-06-14T09:42:47;12.20;;;3.60;;
68379;SDS011;57711;53.196;19.638;2023-06-14T09:45:14;10.90;;;3.40;;
68379;SDS011;57711;53.196;19.638;2023-06-14T09:47:45;10.10;;;4.20;;
68379;SDS011;57711;53.196;19.638;2023-06-14T09:50:31;9.90;;;4.90;;
68379;SDS011;57711;53.196;19.638;2023-06-14T09:53:02;17.00;;;5.50;;
68379;SDS011;57711;53.196;19.638;2023-06-14T09:55:48;8.50;;;5.00;;
68379;SDS011;57711;53.196;19.638;2023-06-14T09:58:16;11.50;;;5.10;;
68379;SDS011;57711;53.196;19.638;2023-06-14T10:00:46;13.30;;;6.40;;
68379;SDS011;57711;53.196;19.638;2023-06-14T10:03:19;9.80;;;5.50;;
68379;SDS011;57711;53.196;19.638;2023-06-14T10:05:50;11.10;;;5.70;;
68379;SDS011;57711;53.196;19.638;2023-06-14T10:08:18;14.00;;;7.00;;
68379;SDS011;57711;53.196;19.638;2023-06-14T10:10:48;9.50;;;4.30;;
68379;SDS011;57711;53.196;19.638;2023-06-14T10:13:15;7.70;;;4.30;;
68379;SDS011;57711;53.196;19.638;2023-06-14T10:15:46;15.20;;;4.00;;
68379;SDS011;57711;53.196;19.638;2023-06-14T10:18:31;11.80;;;4.80;;
68379;SDS011;57711;53.196;19.638;2023-06-14T10:21:05;10.00;;;5.40;;
68379;SDS011;57711;53.196;19.638;2023-06-14T10:23:44;10.20;;;6.40;;
68379;SDS011;57711;53.196;19.638;2023-06-14T10:26:19;9.30;;;5.20;;
68379;SDS011;57711;53.196;19.638;2023-06-14T10:28:59;11.60;;;5.30;;
68379;SDS011;57711;53.196;19.638;2023-06-14T10:31:47;11.40;;;4.80;;
68379;SDS011;57711;53.196;19.638;2023-06-14T10:34:28;8.90;;;4.90;;
68379;SDS011;57711;53.196;19.638;2023-06-14T10:37:29;11.70;;;4.50;;
68379;SDS011;57711;53.196;19.638;2023-06-14T10:39:50;11.20;;;5.90;;
68379;SDS011;57711;53.196;19.638;2023-06-14T10:42:31;10.20;;;5.40;;
68379;SDS011;57711;53.196;19.638;2023-06-14T10:44:59;11.80;;;6.40;;
68379;SDS011;57711;53.196;19.638;2023-06-14T10:50:04;15.40;;;7.80;;
68379;SDS011;57711;53.196;19.638;2023-06-14T10:52:41;36.30;;;23.40;;
68379;SDS011;57711;53.196;19.638;2023-06-14T10:55:18;14.20;;;7.60;;
68379;SDS011;57711;53.196;19.638;2023-06-14T10:57:55;13.80;;;7.20;;
68379;SDS011;57711;53.196;19.638;2023-06-14T11:00:24;16.20;;;10.20;;
68379;SDS011;57711;53.196;19.638;2023-06-14T11:05:55;13.80;;;6.40;;
68379;SDS011;57711;53.196;19.638;2023-06-14T11:11:12;13.10;;;6.00;;
68379;SDS011;57711;53.196;19.638;2023-06-14T11:13:42;12.50;;;6.10;;
68379;SDS011;57711;53.196;19.638;2023-06-14T11:16:14;12.60;;;5.00;;
68379;SDS011;57711;53.196;19.638;2023-06-14T11:18:44;13.00;;;5.70;;
68379;SDS011;57711;53.196;19.638;2023-06-14T11:21:15;9.10;;;5.90;;
68379;SDS011;57711;53.196;19.638;2023-06-14T11:23:48;14.70;;;5.90;;
68379;SDS011;57711;53.196;19.638;2023-06-14T11:26:23;17.70;;;7.10;;
68379;SDS011;57711;53.196;19.638;2023-06-14T11:31:21;8.40;;;4.10;;
68379;SDS011;57711;53.196;19.638;2023-06-14T11:33:51;10.60;;;3.80;;
68379;SDS011;57711;53.196;19.638;2023-06-14T11:36:19;12.60;;;4.10;;
68379;SDS011;57711;53.196;19.638;2023-06-14T11:38:46;15.00;;;3.70;;
68379;SDS011;57711;53.196;19.638;2023-06-14T11:41:13;11.30;;;3.40;;
68379;SDS011;57711;53.196;19.638;2023-06-14T11:43:39;5.10;;;3.40;;
68379;SDS011;57711;53.196;19.638;2023-06-14T11:46:12;6.30;;;3.50;;
68379;SDS011;57711;53.196;19.638;2023-06-14T11:48:41;12.00;;;3.90;;
68379;SDS011;57711;53.196;19.638;2023-06-14T11:51:09;8.20;;;4.20;;
68379;SDS011;57711;53.196;19.638;2023-06-14T11:53:37;9.30;;;4.00;;
68379;SDS011;57711;53.196;19.638;2023-06-14T11:56:04;10.10;;;4.30;;
68379;SDS011;57711;53.196;19.638;2023-06-14T11:58:31;11.70;;;3.60;;
68379;SDS011;57711;53.196;19.638;2023-06-14T12:00:58;4.30;;;2.70;;
68379;SDS011;57711;53.196;19.638;2023-06-14T12:03:25;7.70;;;3.20;;
68379;SDS011;57711;53.196;19.638;2023-06-14T12:06:07;8.30;;;2.40;;
68379;SDS011;57711;53.196;19.638;2023-06-14T12:08:35;5.50;;;2.80;;
68379;SDS011;57711;53.196;19.638;2023-06-14T12:11:13;9.00;;;3.00;;
68379;SDS011;57711;53.196;19.638;2023-06-14T12:13:40;7.10;;;3.10;;
68379;SDS011;57711;53.196;19.638;2023-06-14T12:16:08;5.30;;;3.20;;
68379;SDS011;57711;53.196;19.638;2023-06-14T12:18:35;7.70;;;3.80;;
68379;SDS011;57711;53.196;19.638;2023-06-14T12:21:06;6.30;;;3.40;;
68379;SDS011;57711;53.196;19.638;2023-06-14T12:23:47;8.00;;;3.30;;
68379;SDS011;57711;53.196;19.638;2023-06-14T12:26:19;12.70;;;3.70;;
68379;SDS011;57711;53.196;19.638;2023-06-14T12:28:47;7.20;;;3.60;;
68379;SDS011;57711;53.196;19.638;2023-06-14T12:31:28;7.90;;;2.90;;
68379;SDS011;57711;53.196;19.638;2023-06-14T12:33:55;4.40;;;2.90;;
68379;SDS011;57711;53.196;19.638;2023-06-14T12:36:22;8.60;;;2.80;;
68379;SDS011;57711;53.196;19.638;2023-06-14T12:39:03;5.10;;;3.00;;
68379;SDS011;57711;53.196;19.638;2023-06-14T12:41:30;4.30;;;2.70;;
68379;SDS011;57711;53.196;19.638;2023-06-14T12:43:57;8.30;;;2.90;;
68379;SDS011;57711;53.196;19.638;2023-06-14T12:46:25;6.80;;;3.30;;
68379;SDS011;57711;53.196;19.638;2023-06-14T12:48:52;15.50;;;3.50;;
68379;SDS011;57711;53.196;19.638;2023-06-14T12:51:18;7.20;;;3.50;;
68379;SDS011;57711;53.196;19.638;2023-06-14T12:53:45;7.40;;;2.80;;
68379;SDS011;57711;53.196;19.638;2023-06-14T12:56:11;4.70;;;2.90;;
68379;SDS011;57711;53.196;19.638;2023-06-14T12:58:38;12.70;;;3.60;;
68379;SDS011;57711;53.196;19.638;2023-06-14T13:01:04;5.50;;;3.40;;
68379;SDS011;57711;53.196;19.638;2023-06-14T13:03:31;6.60;;;3.70;;
68379;SDS011;57711;53.196;19.638;2023-06-14T13:06:00;6.20;;;3.00;;
68379;SDS011;57711;53.196;19.638;2023-06-14T13:08:27;6.00;;;2.80;;
68379;SDS011;57711;53.196;19.638;2023-06-14T13:10:54;12.20;;;7.80;;
68379;SDS011;57711;53.196;19.638;2023-06-14T13:13:20;9.80;;;5.70;;
68379;SDS011;57711;53.196;19.638;2023-06-14T13:15:47;11.50;;;4.30;;
68379;SDS011;57711;53.196;19.638;2023-06-14T13:18:15;7.10;;;3.60;;
68379;SDS011;57711;53.196;19.638;2023-06-14T13:20:42;10.80;;;3.50;;
68379;SDS011;57711;53.196;19.638;2023-06-14T13:23:09;11.30;;;4.10;;
68379;SDS011;57711;53.196;19.638;2023-06-14T13:25:36;10.80;;;3.40;;
68379;SDS011;57711;53.196;19.638;2023-06-14T13:28:04;11.40;;;3.00;;
68379;SDS011;57711;53.196;19.638;2023-06-14T13:30:32;8.10;;;3.30;;
68379;SDS011;57711;53.196;19.638;2023-06-14T13:32:59;9.00;;;3.60;;
68379;SDS011;57711;53.196;19.638;2023-06-14T13:35:27;7.90;;;4.30;;
68379;SDS011;57711;53.196;19.638;2023-06-14T13:37:53;9.20;;;4.20;;
68379;SDS011;57711;53.196;19.638;2023-06-14T13:40:20;6.60;;;4.30;;
68379;SDS011;57711;53.196;19.638;2023-06-14T13:42:47;7.20;;;4.10;;
68379;SDS011;57711;53.196;19.638;2023-06-14T13:45:14;9.70;;;4.80;;
68379;SDS011;57711;53.196;19.638;2023-06-14T13:47:41;12.90;;;4.50;;
68379;SDS011;57711;53.196;19.638;2023-06-14T13:50:08;9.90;;;5.10;;
68379;SDS011;57711;53.196;19.638;2023-06-14T13:52:35;7.90;;;4.60;;
68379;SDS011;57711;53.196;19.638;2023-06-14T13:55:02;14.30;;;4.60;;
68379;SDS011;57711;53.196;19.638;2023-06-14T13:57:29;9.90;;;4.00;;
68379;SDS011;57711;53.196;19.638;2023-06-14T13:59:55;8.70;;;4.40;;
68379;SDS011;57711;53.196;19.638;2023-06-14T14:02:27;10.20;;;4.00;;
68379;SDS011;57711;53.196;19.638;2023-06-14T14:04:55;10.50;;;4.80;;
68379;SDS011;57711;53.196;19.638;2023-06-14T14:07:23;9.70;;;5.10;;
68379;SDS011;57711;53.196;19.638;2023-06-14T14:09:50;7.10;;;4.90;;
68379;SDS011;57711;53.196;19.638;2023-06-14T14:12:31;8.10;;;4.70;;
68379;SDS011;57711;53.196;19.638;2023-06-14T14:14:57;11.00;;;5.40;;
68379;SDS011;57711;53.196;19.638;2023-06-14T14:17:24;10.90;;;5.90;;
68379;SDS011;57711;53.196;19.638;2023-06-14T14:19:50;11.30;;;5.80;;
68379;SDS011;57711;53.196;19.638;2023-06-14T14:22:18;11.30;;;5.80;;
68379;SDS011;57711;53.196;19.638;2023-06-14T14:24:44;17.80;;;7.20;;
68379;SDS011;57711;53.196;19.638;2023-06-14T14:27:11;12.60;;;6.70;;
68379;SDS011;57711;53.196;19.638;2023-06-14T14:29:38;13.30;;;5.30;;
68379;SDS011;57711;53.196;19.638;2023-06-14T14:32:05;9.80;;;5.70;;
68379;SDS011;57711;53.196;19.638;2023-06-14T14:34:32;7.30;;;5.10;;
68379;SDS011;57711;53.196;19.638;2023-06-14T14:36:59;10.20;;;7.50;;
68379;SDS011;57711;53.196;19.638;2023-06-14T14:39:26;13.80;;;6.80;;
68379;SDS011;57711;53.196;19.638;2023-06-14T14:41:54;14.70;;;9.90;;
68379;SDS011;57711;53.196;19.638;2023-06-14T14:44:21;29.50;;;20.80;;
68379;SDS011;57711;53.196;19.638;2023-06-14T14:46:47;34.30;;;22.30;;
68379;SDS011;57711;53.196;19.638;2023-06-14T14:49:14;74.70;;;50.40;;